Time;durP1;ratioP1;P1;durP2;ratioP2;P2;SDS_P1;SDS_P2;PMS_P1;PMS_P2;Temp;Humidity;BMP_temperature;BMP_pressure;BME280_temperature;BME280_humidity;BME280_pressure;Samples;Min_cycle;Max_cycle;Signal;HPM_P1;HPM_P2
2022/09/28 00:02:04;;;;;;;5.28;0.70;;;22.00;60.40;;;;;;5068813;28;20028;-44
2022/09/28 00:04:34;;;;;;;3.35;0.63;;;22.00;60.40;;;;;;5081927;28;20039;-43
2022/09/28 00:07:01;;;;;;;3.45;0.50;;;22.00;60.40;;;;;;5084363;28;20036;-44
2022/09/28 00:09:27;;;;;;;4.97;0.57;;;22.00;60.50;;;;;;5065062;28;20083;-44
2022/09/28 00:11:53;;;;;;;4.47;0.77;;;22.00;60.50;;;;;;5075600;28;20099;-44
2022/09/28 00:14:19;;;;;;;6.32;0.98;;;22.00;60.40;;;;;;5080423;28;20032;-44
2022/09/28 00:16:46;;;;;;;4.75;0.80;;;22.00;60.20;;;;;;5075437;28;20067;-50
2022/09/28 00:19:12;;;;;;;5.55;0.80;;;22.00;60.10;;;;;;5076051;28;20049;-46
2022/09/28 00:21:39;;;;;;;3.30;0.70;;;22.00;60.00;;;;;;5077569;28;20033;-45
2022/09/28 00:24:12;;;;;;;2.70;0.60;;;22.00;60.00;;;;;;5082789;28;20283;-46
2022/09/28 00:26:39;;;;;;;1.40;0.63;;;22.00;59.80;;;;;;5078356;28;20039;-49
2022/09/28 00:29:06;;;;;;;1.90;0.50;;;22.00;59.80;;;;;;5076391;28;20028;-48
2022/09/28 00:31:33;;;;;;;3.75;0.70;;;22.00;59.70;;;;;;5082734;28;20031;-59
2022/09/28 00:34:00;;;;;;;5.50;0.80;;;22.00;60.10;;;;;;5075127;28;20052;-61
2022/09/28 00:36:30;;;;;;;3.15;0.60;;;22.00;60.40;;;;;;5084564;28;20059;-56
2022/09/28 00:38:56;;;;;;;7.47;1.10;;;22.00;60.50;;;;;;5078813;28;20047;-55
2022/09/28 00:41:24;;;;;;;8.13;0.80;;;22.00;60.40;;;;;;5075648;28;20044;-59
2022/09/28 00:43:50;;;;;;;3.30;0.93;;;22.00;60.70;;;;;;5079487;28;20036;-57
2022/09/28 00:46:19;;;;;;;1.45;0.40;;;22.00;60.70;;;;;;5085936;28;20148;-56
2022/09/28 00:48:56;;;;;;;1.77;0.50;;;22.00;60.40;;;;;;5090997;28;20024;-57
2022/09/28 00:51:22;;;;;;;5.63;1.00;;;22.00;59.70;;;;;;5083706;28;20029;-56
2022/09/28 00:53:48;;;;;;;3.53;0.95;;;22.00;59.80;;;;;;5080873;28;20029;-51
2022/09/28 00:56:17;;;;;;;2.72;0.85;;;22.00;60.00;;;;;;5065350;28;20033;-50
2022/09/28 00:58:46;;;;;;;5.00;0.80;;;22.00;60.10;;;;;;5082855;28;20032;-54
2022/09/28 01:01:12;;;;;;;1.15;0.50;;;22.00;60.10;;;;;;5089210;28;20034;-52
2022/09/28 01:03:44;;;;;;;1.98;0.65;;;22.00;60.20;;;;;;5093451;28;20052;-53
2022/09/28 01:06:29;;;;;;;3.08;0.60;;;22.00;60.10;;;;;;5082598;28;20035;-52
2022/09/28 01:08:57;;;;;;;1.00;0.70;;;22.00;60.10;;;;;;5078182;28;20044;-57
2022/09/28 01:11:24;;;;;;;2.40;0.60;;;22.00;60.10;;;;;;5075373;28;20093;-56
2022/09/28 01:13:51;;;;;;;1.67;0.47;;;22.00;60.10;;;;;;5059830;28;20052;-61
2022/09/28 01:16:17;;;;;;;;;;;22.00;60.10;;;;;;5077050;28;20039;-59
2022/09/28 01:18:52;;;;;;;3.22;0.70;;;22.00;60.30;;;;;;5096378;28;19923;-56
2022/09/28 01:21:19;;;;;;;1.70;0.60;;;22.00;60.30;;;;;;5079098;28;20040;-53
2022/09/28 01:24:19;;;;;;;1.00;0.50;;;22.00;60.30;;;;;;5084229;28;20036;-54
2022/09/28 01:26:51;;;;;;;1.38;0.50;;;21.90;60.20;;;;;;5080996;28;20123;-62
2022/09/28 01:29:56;;;;;;;0.95;0.52;;;22.00;60.30;;;;;;5080554;28;20424;-62
2022/09/28 01:32:32;;;;;;;1.63;0.52;;;22.00;60.30;;;;;;5075673;28;20028;-61
2022/09/28 01:35:07;;;;;;;1.08;0.50;;;21.90;60.30;;;;;;5043562;28;20060;-62
2022/09/28 01:38:01;;;;;;;2.15;0.55;;;21.90;60.00;;;;;;5061530;28;20029;-61
2022/09/28 01:40:27;;;;;;;2.15;0.63;;;21.90;60.00;;;;;;5045068;28;20030;-61
2022/09/28 01:42:56;;;;;;;1.47;0.60;;;21.90;60.00;;;;;;5037324;28;20469;-61
2022/09/28 01:45:44;;;;;;;1.95;0.60;;;21.90;60.00;;;;;;5032839;28;20048;-61
2022/09/28 01:48:11;;;;;;;1.83;1.00;;;21.90;59.90;;;;;;5037063;28;20022;-57
2022/09/28 01:50:38;;;;;;;2.05;0.88;;;21.90;60.00;;;;;;5041641;28;20033;-58
2022/09/28 01:53:23;;;;;;;3.92;0.88;;;21.90;60.20;;;;;;5044049;28;20033;-60
2022/09/28 01:55:53;;;;;;;2.85;1.30;;;21.90;61.30;;;;;;5037415;28;20029;-58
2022/09/28 01:58:33;;;;;;;6.25;1.85;;;21.90;60.70;;;;;;5025501;28;20140;-57
2022/09/28 02:01:21;;;;;;;2.80;1.20;;;21.90;60.50;;;;;;5024729;28;20528;-54
2022/09/28 02:03:53;;;;;;;4.43;1.23;;;21.90;59.80;;;;;;5028427;28;20044;-42
2022/09/28 02:06:30;;;;;;;3.47;1.50;;;21.90;59.50;;;;;;5029996;28;20798;-44
2022/09/28 02:09:03;;;;;;;3.08;1.10;;;21.90;59.80;;;;;;5029047;28;20064;-55
2022/09/28 02:11:29;;;;;;;2.78;0.95;;;21.90;59.90;;;;;;5028620;28;20064;-50
2022/09/28 02:14:05;;;;;;;2.05;1.02;;;21.90;60.00;;;;;;5064167;28;20088;-42
2022/09/28 02:16:41;;;;;;;3.25;1.20;;;21.90;60.00;;;;;;5038201;28;20068;-41
2022/09/28 02:19:24;;;;;;;4.05;1.30;;;21.90;60.00;;;;;;5067331;28;20028;-42
2022/09/28 02:22:00;;;;;;;2.47;1.20;;;21.90;60.00;;;;;;5037899;28;20030;-50
2022/09/28 02:24:46;;;;;;;2.42;1.05;;;21.90;60.00;;;;;;5041601;28;20029;-50
2022/09/28 02:27:16;;;;;;;4.20;1.00;;;21.80;60.00;;;;;;5038606;28;20131;-48
2022/09/28 02:29:42;;;;;;;4.00;1.10;;;21.80;59.90;;;;;;5040012;28;20143;-51
2022/09/28 02:32:08;;;;;;;4.55;1.20;;;21.80;60.10;;;;;;5058729;28;20036;-47
2022/09/28 02:34:34;;;;;;;5.27;1.33;;;21.80;60.00;;;;;;5075002;28;20048;-46
2022/09/28 02:37:01;;;;;;;5.90;1.40;;;21.80;59.90;;;;;;5069075;28;20028;-51
2022/09/28 02:39:27;;;;;;;3.72;1.35;;;21.80;60.20;;;;;;5071086;28;20047;-51
2022/09/28 02:42:26;;;;;;;2.70;1.20;;;21.80;60.50;;;;;;5067626;28;20527;-53
2022/09/28 02:45:05;;;;;;;3.22;1.30;;;21.80;60.50;;;;;;5044348;28;20564;-54
2022/09/28 02:48:08;;;;;;;2.40;1.02;;;21.80;60.50;;;;;;5052776;28;20075;-57
2022/09/28 02:50:56;;;;;;;3.08;1.02;;;21.80;60.50;;;;;;5063084;28;20066;-48
2022/09/28 02:53:34;;;;;;;2.67;1.10;;;21.80;60.30;;;;;;5066188;28;20394;-47
2022/09/28 02:56:23;;;;;;;2.72;1.20;;;21.80;60.40;;;;;;5068337;28;20032;-47
2022/09/28 02:59:02;;;;;;;3.38;1.20;;;21.80;60.30;;;;;;5016987;28;20045;-44
2022/09/28 03:01:47;;;;;;;3.13;1.20;;;21.80;60.30;;;;;;5047102;28;20029;-46
2022/09/28 03:04:32;;;;;;;3.47;1.23;;;21.70;60.20;;;;;;5069187;28;20021;-47
2022/09/28 03:07:21;;;;;;;4.38;1.10;;;21.70;60.00;;;;;;5063730;28;20058;-47
2022/09/28 03:09:50;;;;;;;4.65;1.25;;;21.70;60.00;;;;;;5020603;28;20439;-45
2022/09/28 03:12:17;;;;;;;4.72;1.17;;;21.70;60.00;;;;;;5065209;28;20495;-48
2022/09/28 03:14:44;;;;;;;5.95;1.20;;;21.70;60.00;;;;;;5045389;28;20093;-46
2022/09/28 03:17:10;;;;;;;2.10;1.10;;;21.70;59.90;;;;;;5066447;28;20056;-47
2022/09/28 03:19:36;;;;;;;2.08;1.00;;;21.70;59.80;;;;;;5067859;28;20125;-45
2022/09/28 03:22:02;;;;;;;2.58;1.13;;;21.70;59.90;;;;;;5055607;28;20527;-46
2022/09/28 03:24:29;;;;;;;2.15;1.10;;;21.70;59.80;;;;;;5067545;28;20047;-46
2022/09/28 03:26:55;;;;;;;3.30;1.40;;;21.60;59.80;;;;;;5081715;28;20034;-46
2022/09/28 03:29:21;;;;;;;2.28;1.00;;;21.60;59.80;;;;;;5080354;28;20087;-45
2022/09/28 03:31:48;;;;;;;3.58;1.00;;;21.60;59.80;;;;;;5071095;28;20024;-45
2022/09/28 03:34:14;;;;;;;3.83;1.33;;;21.60;59.80;;;;;;5059651;28;20520;-44
2022/09/28 03:36:40;;;;;;;1.97;1.00;;;21.60;59.80;;;;;;5057547;28;20029;-45
2022/09/28 03:39:06;;;;;;;2.80;1.10;;;21.60;59.80;;;;;;5064934;28;20091;-47
2022/09/28 03:41:33;;;;;;;1.80;1.00;;;21.60;59.90;;;;;;5056567;28;20047;-45
2022/09/28 03:43:59;;;;;;;2.60;1.02;;;21.60;59.90;;;;;;5053890;28;20060;-48
2022/09/28 03:46:26;;;;;;;3.85;1.20;;;21.50;59.80;;;;;;5060390;28;20025;-46
2022/09/28 03:48:52;;;;;;;2.22;0.90;;;21.50;59.80;;;;;;5060681;28;20560;-44
2022/09/28 03:51:18;;;;;;;1.75;0.90;;;21.50;59.80;;;;;;5043293;28;20033;-48
2022/09/28 03:53:44;;;;;;;3.17;1.30;;;21.50;59.70;;;;;;5058497;28;20083;-44
2022/09/28 03:56:12;;;;;;;2.05;0.88;;;21.50;59.70;;;;;;5060924;28;20025;-44
2022/09/28 03:58:38;;;;;;;2.88;1.00;;;21.50;59.80;;;;;;5042156;28;20494;-47
2022/09/28 04:01:11;;;;;;;1.88;1.00;;;21.50;59.70;;;;;;5060892;28;20036;-45
2022/09/28 04:03:37;;;;;;;2.63;1.00;;;21.50;59.70;;;;;;5060652;28;20033;-44
2022/09/28 04:06:03;;;;;;;2.15;1.00;;;21.50;59.70;;;;;;5063250;28;20048;-45
2022/09/28 04:08:29;;;;;;;1.90;0.88;;;21.50;59.70;;;;;;5069340;28;20025;-45
2022/09/28 04:10:56;;;;;;;2.92;0.80;;;21.50;59.60;;;;;;5057614;28;20037;-44
2022/09/28 04:13:23;;;;;;;;;;;21.40;59.70;;;;;;5070929;28;20029;-43
2022/09/28 04:15:53;;;;;;;1.33;0.75;;;21.50;59.70;;;;;;5066367;28;19916;-43
2022/09/28 04:18:19;;;;;;;1.58;0.73;;;21.40;59.70;;;;;;5057735;28;20029;-42
2022/09/28 04:20:46;;;;;;;1.58;0.90;;;21.40;59.70;;;;;;5064766;28;20576;-43
2022/09/28 04:23:15;;;;;;;2.47;1.00;;;21.40;59.60;;;;;;5054355;28;20491;-45
2022/09/28 04:25:46;;;;;;;2.08;0.90;;;21.40;59.70;;;;;;5063671;28;20033;-44
2022/09/28 04:30:57;;;;;;;1.00;0.80;;;21.40;59.70;;;;;;5066312;28;20028;-43
2022/09/28 04:33:23;;;;;;;1.20;0.90;;;21.30;59.80;;;;;;5061752;28;20105;-44
2022/09/28 04:35:49;;;;;;;1.40;0.75;;;21.30;59.80;;;;;;5064574;28;20037;-44
2022/09/28 04:38:15;;;;;;;1.83;0.85;;;21.30;59.70;;;;;;5061593;28;20485;-46
2022/09/28 04:40:41;;;;;;;3.65;0.98;;;21.30;59.80;;;;;;5063646;28;20121;-44
2022/09/28 04:43:07;;;;;;;2.55;0.93;;;21.30;59.80;;;;;;5060365;28;20040;-44
2022/09/28 04:45:33;;;;;;;2.47;0.90;;;21.30;59.80;;;;;;5040567;28;20087;-47
2022/09/28 04:47:59;;;;;;;1.42;0.70;;;21.30;60.00;;;;;;5054886;28;20055;-46
2022/09/28 04:50:26;;;;;;;1.98;0.80;;;21.30;60.00;;;;;;5059883;28;20033;-44
2022/09/28 04:52:52;;;;;;;1.15;0.60;;;21.30;60.00;;;;;;5063133;28;20114;-48
2022/09/28 04:55:19;;;;;;;1.08;0.55;;;21.20;60.00;;;;;;5064056;28;20478;-46
2022/09/28 04:57:45;;;;;;;1.75;0.77;;;21.20;60.00;;;;;;5062501;28;20029;-44
2022/09/28 05:00:12;;;;;;;1.77;0.80;;;21.20;60.00;;;;;;5063731;28;20045;-44
2022/09/28 05:02:38;;;;;;;1.45;0.77;;;21.20;60.00;;;;;;5059921;28;20081;-45
2022/09/28 05:05:23;;;;;;;1.08;0.77;;;21.20;59.90;;;;;;5063274;28;20072;-43
2022/09/28 05:07:49;;;;;;;1.50;0.90;;;21.20;60.00;;;;;;5049616;28;20032;-44
2022/09/28 05:10:17;;;;;;;1.92;0.93;;;21.20;59.90;;;;;;5058345;28;20030;-44
2022/09/28 05:12:43;;;;;;;1.90;0.70;;;21.20;60.00;;;;;;5046921;28;20041;-44
2022/09/28 05:15:10;;;;;;;1.00;0.70;;;21.20;59.90;;;;;;5050238;28;20022;-46
2022/09/28 05:17:36;;;;;;;1.20;0.80;;;21.10;59.90;;;;;;5048688;28;20033;-45
2022/09/28 05:20:03;;;;;;;1.13;0.70;;;21.10;59.90;;;;;;5051476;28;20045;-44
2022/09/28 05:22:32;;;;;;;2.13;0.85;;;21.10;60.00;;;;;;5060463;28;20292;-45
2022/09/28 05:24:59;;;;;;;3.60;0.75;;;21.10;60.00;;;;;;5043455;28;20109;-49
2022/09/28 05:27:25;;;;;;;1.45;0.88;;;21.10;60.70;;;;;;5043162;28;20029;-44
2022/09/28 05:29:51;;;;;;;1.77;0.80;;;21.10;60.00;;;;;;5038499;28;20041;-43
2022/09/28 05:32:17;;;;;;;1.40;0.73;;;21.10;60.00;;;;;;5036929;28;20020;-47
2022/09/28 05:34:44;;;;;;;1.23;0.70;;;21.00;60.00;;;;;;5054770;28;20277;-44
2022/09/28 05:37:10;;;;;;;1.40;0.70;;;21.00;60.00;;;;;;5062729;28;20021;-47
2022/09/28 05:39:36;;;;;;;2.00;0.93;;;21.00;60.10;;;;;;5062539;28;20068;-44
2022/09/28 05:42:02;;;;;;;1.30;0.75;;;21.00;60.10;;;;;;5065595;28;20033;-44
2022/09/28 05:44:29;;;;;;;1.58;0.90;;;21.00;60.10;;;;;;5067400;28;20043;-45
2022/09/28 05:46:55;;;;;;;1.75;0.60;;;21.00;60.20;;;;;;5060701;28;20116;-49
2022/09/28 05:49:21;;;;;;;0.80;0.52;;;21.00;60.30;;;;;;5060269;28;20029;-45
2022/09/28 05:51:47;;;;;;;0.60;0.60;;;20.90;60.10;;;;;;5058876;28;20029;-45
2022/09/28 05:54:13;;;;;;;1.67;0.70;;;20.90;60.20;;;;;;5053304;28;20046;-47
2022/09/28 05:56:40;;;;;;;1.23;0.70;;;20.90;60.30;;;;;;5050464;28;20021;-46
2022/09/28 05:59:06;;;;;;;2.10;0.60;;;20.90;60.30;;;;;;5066000;28;20045;-45
2022/09/28 06:01:32;;;;;;;1.05;0.70;;;20.90;60.30;;;;;;5062636;28;20051;-49
2022/09/28 06:03:58;;;;;;;1.35;0.70;;;20.90;60.40;;;;;;5058887;28;20101;-45
2022/09/28 06:06:24;;;;;;;1.45;0.60;;;20.90;60.40;;;;;;5061476;28;20033;-46
2022/09/28 06:08:51;;;;;;;1.52;0.70;;;20.90;60.50;;;;;;5061178;28;20029;-46
2022/09/28 06:11:17;;;;;;;1.38;0.65;;;20.90;60.50;;;;;;5058039;28;20032;-48
2022/09/28 06:13:43;;;;;;;1.10;0.70;;;20.80;60.40;;;;;;5062752;28;20037;-45
2022/09/28 06:16:14;;;;;;;0.90;0.50;;;20.80;60.40;;;;;;5054475;28;20043;-45
2022/09/28 06:18:41;;;;;;;1.88;0.70;;;20.80;60.40;;;;;;5029105;28;20056;-46
2022/09/28 06:21:09;;;;;;;1.05;0.70;;;20.80;60.50;;;;;;5061568;28;20024;-44
2022/09/28 06:23:36;;;;;;;3.15;0.80;;;20.80;60.50;;;;;;5067836;28;20051;-44
2022/09/28 06:26:02;;;;;;;1.23;0.63;;;20.70;60.50;;;;;;5046399;28;20769;-45
2022/09/28 06:28:28;;;;;;;0.88;0.68;;;20.70;60.60;;;;;;5057857;28;20025;-45
2022/09/28 06:30:54;;;;;;;1.10;0.70;;;20.70;60.70;;;;;;5061994;28;20029;-45
2022/09/28 06:33:20;;;;;;;1.10;0.75;;;20.70;60.80;;;;;;5066989;28;20045;-45
2022/09/28 06:35:46;;;;;;;0.85;0.63;;;20.70;60.90;;;;;;5048903;28;20033;-46
2022/09/28 06:38:13;;;;;;;1.10;0.70;;;20.70;60.90;;;;;;5061003;28;20036;-50
2022/09/28 06:40:39;;;;;;;1.15;0.60;;;20.70;61.00;;;;;;5054498;28;20028;-49
2022/09/28 06:43:13;;;;;;;0.73;0.50;;;20.70;61.10;;;;;;5082471;28;20103;-47
2022/09/28 06:45:40;;;;;;;0.77;0.55;;;20.70;61.00;;;;;;5060861;28;20497;-47
2022/09/28 06:48:06;;;;;;;0.60;0.40;;;20.60;60.90;;;;;;5061117;28;20144;-46
2022/09/28 06:50:36;;;;;;;1.45;0.90;;;20.60;60.90;;;;;;5061386;28;20274;-44
2022/09/28 06:53:02;;;;;;;0.93;0.60;;;20.60;60.90;;;;;;5067978;28;20078;-45
2022/09/28 06:55:29;;;;;;;1.13;0.70;;;20.60;60.90;;;;;;5058693;28;20040;-45
2022/09/28 06:58:05;;;;;;;0.90;0.60;;;20.60;60.90;;;;;;5052367;28;20025;-50
2022/09/28 07:00:33;;;;;;;0.85;0.50;;;20.60;61.00;;;;;;5061118;28;20047;-49
2022/09/28 07:03:03;;;;;;;0.90;0.63;;;20.60;60.90;;;;;;5068262;28;20043;-47
2022/09/28 07:05:29;;;;;;;0.77;0.57;;;20.60;60.90;;;;;;5044128;28;20486;-45
2022/09/28 07:07:56;;;;;;;1.13;0.57;;;20.50;60.90;;;;;;5042767;28;20041;-47
2022/09/28 07:10:29;;;;;;;0.77;0.63;;;20.60;61.00;;;;;;5055360;28;20349;-46
2022/09/28 07:12:56;;;;;;;1.02;0.60;;;20.60;61.10;;;;;;5055583;28;20079;-45
2022/09/28 07:15:22;;;;;;;0.65;0.50;;;20.50;61.10;;;;;;5050474;28;20050;-46
2022/09/28 07:17:48;;;;;;;1.25;0.70;;;20.50;61.10;;;;;;5061384;28;20120;-46
2022/09/28 07:20:15;;;;;;;1.13;0.65;;;20.50;61.20;;;;;;5063149;28;20096;-46
2022/09/28 07:22:42;;;;;;;0.60;0.60;;;20.50;61.20;;;;;;5079476;28;20045;-45
2022/09/28 07:25:09;;;;;;;0.40;0.38;;;20.50;61.20;;;;;;5062535;28;20061;-47
2022/09/28 07:27:36;;;;;;;1.13;0.70;;;20.50;61.20;;;;;;5066234;28;20029;-47
2022/09/28 07:30:04;;;;;;;1.75;0.50;;;20.50;61.20;;;;;;5046044;28;20045;-45
2022/09/28 07:32:33;;;;;;;1.40;0.85;;;20.40;61.20;;;;;;5064590;28;20070;-45
2022/09/28 07:35:03;;;;;;;1.17;0.50;;;20.40;61.20;;;;;;5053743;28;20049;-46
2022/09/28 07:37:30;;;;;;;0.88;0.50;;;20.40;61.30;;;;;;5056758;28;20031;-47
2022/09/28 07:42:45;;;;;;;1.13;0.70;;;20.40;61.30;;;;;;5016718;28;20125;-46
2022/09/28 07:45:11;;;;;;;3.28;0.70;;;20.30;61.20;;;;;;5063991;28;20076;-49
2022/09/28 07:47:37;;;;;;;0.90;0.80;;;20.40;61.20;;;;;;5063432;28;20021;-45
2022/09/28 07:50:04;;;;;;;0.50;0.50;;;20.30;61.30;;;;;;5065188;28;20029;-45
2022/09/28 07:52:33;;;;;;;0.85;0.52;;;20.30;61.30;;;;;;5062233;28;20036;-45
2022/09/28 07:55:00;;;;;;;0.85;0.60;;;20.30;61.30;;;;;;5056559;28;20036;-45
2022/09/28 07:57:26;;;;;;;0.85;0.40;;;20.30;61.30;;;;;;5063559;28;20036;-44
2022/09/28 07:59:53;;;;;;;0.73;0.60;;;20.30;61.30;;;;;;5064925;28;20057;-46
2022/09/28 08:02:19;;;;;;;0.70;0.50;;;20.30;61.40;;;;;;5042770;28;20029;-47
2022/09/28 08:04:49;;;;;;;1.07;0.57;;;20.30;61.50;;;;;;5055340;28;20028;-46
2022/09/28 08:07:16;;;;;;;1.02;0.60;;;20.30;61.50;;;;;;5051337;28;20286;-46
2022/09/28 08:09:45;;;;;;;1.15;0.70;;;20.30;61.50;;;;;;5069527;28;20076;-44
2022/09/28 08:12:12;;;;;;;0.70;0.43;;;20.20;61.50;;;;;;5070791;28;20033;-50
2022/09/28 08:14:38;;;;;;;0.90;0.75;;;20.20;61.50;;;;;;5063518;28;20678;-46
2022/09/28 08:17:05;;;;;;;3.30;0.80;;;20.20;61.60;;;;;;5066266;28;20774;-43
2022/09/28 08:21:43;;;;;;;4.32;0.90;;;20.20;61.80;;;;;;5074147;28;20139;-45
2022/09/28 08:22:18;;;;;;;15.80;2.05;;;20.20;61.90;;;;;;5049607;28;20092;-45
2022/09/28 08:24:44;;;;;;;12.00;2.75;;;20.20;62.10;;;;;;5055483;28;20043;-44
2022/09/28 08:27:11;;;;;;;11.27;2.28;;;20.20;62.30;;;;;;5072296;28;20032;-46
2022/09/28 08:29:37;;;;;;;17.73;2.42;;;20.20;62.30;;;;;;5053846;28;20040;-55
2022/09/28 08:32:06;;;;;;;8.63;2.00;;;20.20;62.40;;;;;;5042949;28;20032;-44
2022/09/28 08:34:36;;;;;;;9.15;2.10;;;20.20;62.70;;;;;;5058300;28;20398;-45
2022/09/28 08:37:03;;;;;;;9.88;1.83;;;20.20;62.80;;;;;;5058702;28;20025;-45
2022/09/28 08:39:29;;;;;;;5.20;1.83;;;20.10;62.60;;;;;;5064168;28;20117;-45
2022/09/28 08:42:17;;;;;;;8.13;1.80;;;20.10;62.50;;;;;;5062482;28;20067;-44
2022/09/28 08:44:44;;;;;;;;;;;20.10;62.50;;;;;;5050276;28;20029;-48
2022/09/28 08:50:04;;;;;;;;;;;20.10;62.30;;;;;;5064355;28;19915;-48
2022/09/28 08:52:32;;;;;;;;;;;20.10;62.20;;;;;;5061806;28;19915;-46
2022/09/28 08:54:59;;;;;;;;;;;20.10;62.10;;;;;;5045751;28;20265;-47
2022/09/28 08:57:25;;;;;;;;;;;20.10;62.00;;;;;;5058310;28;19913;-48
2022/09/28 08:59:52;;;;;;;;;;;20.10;61.90;;;;;;5061235;28;19988;-45
2022/09/28 09:02:21;;;;;;;;;;;20.10;61.80;;;;;;5061257;28;19952;-45
2022/09/28 09:04:47;;;;;;;;;;;20.10;61.70;;;;;;5037368;28;19935;-49
2022/09/28 09:07:16;;;;;;;;;;;20.10;61.70;;;;;;5053424;28;19920;-47
2022/09/28 09:09:42;;;;;;;;;;;20.10;61.70;;;;;;5064507;28;19909;-50
2022/09/28 09:12:27;;;;;;;;;;;20.10;61.70;;;;;;5049962;28;19948;-48
2022/09/28 09:14:56;;;;;;;;;;;20.10;61.60;;;;;;5045659;28;19994;-47
2022/09/28 09:17:40;;;;;;;;;;;20.10;62.30;;;;;;5044396;28;20465;-48
2022/09/28 09:20:18;;;;;;;;;;;20.00;61.50;;;;;;5043829;28;19913;-46
2022/09/28 09:22:48;;;;;;;;;;;20.00;61.40;;;;;;5026065;28;19948;-45
2022/09/28 09:25:14;;;;;;;;;;;20.00;61.40;;;;;;5052433;28;19909;-45
2022/09/28 09:27:57;;;;;;;;;;;20.00;61.40;;;;;;5056426;28;19913;-45
2022/09/28 09:30:27;;;;;;;;;;;20.00;61.40;;;;;;5040731;28;19913;-46
2022/09/28 09:33:03;;;;;;;;;;;20.00;61.30;;;;;;5063232;28;19912;-45
2022/09/28 09:35:47;;;;;;;;;;;20.00;61.30;;;;;;5068629;28;19989;-45
2022/09/28 09:38:23;;;;;;;;;;;20.00;61.30;;;;;;5063339;28;19927;-45
2022/09/28 09:41:01;;;;;;;;;;;19.90;61.30;;;;;;5061728;28;19956;-44
2022/09/28 09:43:36;;;;;;;;;;;19.90;61.20;;;;;;5064088;28;19913;-46
2022/09/28 09:46:08;;;;;;;;;;;19.90;61.20;;;;;;5067390;28;19913;-45
2022/09/28 09:48:54;;;;;;;;;;;19.90;61.20;;;;;;5076888;28;19997;-45
2022/09/28 09:51:26;;;;;;;;;;;19.90;61.20;;;;;;5061453;28;19909;-45
2022/09/28 09:53:59;;;;;;;;;;;19.90;61.30;;;;;;5059825;28;20009;-44
2022/09/28 09:56:27;;;;;;;;;;;19.80;61.20;;;;;;5051661;28;19920;-47
2022/09/28 09:58:54;;;;;;;;;;;19.80;61.10;;;;;;5053051;28;20481;-47
2022/09/28 10:01:22;;;;;;;;;;;19.80;61.30;;;;;;5063298;28;19916;-44
2022/09/28 10:03:48;;;;;;;;;;;19.80;61.20;;;;;;5049953;28;19908;-46
2022/09/28 10:06:24;;;;;;;;;;;19.80;61.20;;;;;;5082639;28;20391;-45
2022/09/28 10:09:01;;;;;;;;;;;19.80;61.10;;;;;;5074264;28;19912;-46
2022/09/28 10:11:37;;;;;;;;;;;19.80;61.10;;;;;;5045414;28;19913;-46
2022/09/28 10:14:03;;;;;;;;;;;19.80;61.10;;;;;;5043543;28;19908;-46
2022/09/28 10:16:29;;;;;;;;;;;19.70;61.10;;;;;;5062621;28;19917;-50
2022/09/28 10:18:55;;;;;;;;;;;19.70;61.10;;;;;;5056568;28;20391;-44
2022/09/28 10:21:21;;;;;;;;;;;19.70;61.10;;;;;;5076132;28;19979;-48
2022/09/28 10:23:49;;;;;;;;;;;19.70;61.10;;;;;;5079443;28;19975;-44
2022/09/28 10:26:15;;;;;;;;;;;19.70;61.10;;;;;;5044755;28;19944;-42
2022/09/28 10:28:44;;;;;;;;;;;19.70;61.20;;;;;;5044533;28;19912;-40
2022/09/28 10:31:29;;;;;;;;;;;19.70;61.40;;;;;;5065223;28;19916;-41
2022/09/28 10:33:55;;;;;;;;;;;19.60;61.80;;;;;;5068296;28;19928;-41
2022/09/28 10:36:23;;;;;;;;;;;19.60;62.10;;;;;;5044921;28;19909;-37
2022/09/28 10:38:49;;;;;;;;;;;19.60;62.40;;;;;;5062164;28;19948;-41
2022/09/28 10:41:16;;;;;;;;;;;19.60;62.50;;;;;;5063233;28;20331;-40
2022/09/28 10:44:04;;;;;;;;;;;19.60;62.50;;;;;;5058553;28;19920;-40
2022/09/28 10:46:31;;;;;;;;;;;19.60;62.60;;;;;;5053103;28;19933;-41
2022/09/28 10:48:57;;;;;;;;;;;19.60;62.60;;;;;;5057360;28;19987;-40
2022/09/28 10:51:46;;;;;;;;;;;19.60;62.60;;;;;;5060492;28;19915;-40
2022/09/28 10:54:16;;;;;;;;;;;19.60;62.60;;;;;;5060381;28;19935;-40
2022/09/28 10:56:42;;;;;;;;;;;19.60;62.60;;;;;;5060390;28;19910;-40
2022/09/28 10:59:27;;;;;;;;;;;19.60;62.50;;;;;;5070619;28;20593;-40
2022/09/28 11:01:54;;;;;;;;;;;19.50;62.30;;;;;;5059797;28;20335;-40
2022/09/28 11:04:21;;;;;;;;;;;19.50;62.30;;;;;;5045492;28;20364;-42
2022/09/28 11:06:46;;;;;;;;;;;19.50;62.30;;;;;;5045462;28;19912;-41
2022/09/28 11:09:28;;;;;;;;;;;19.50;62.20;;;;;;5061852;28;19913;-40
2022/09/28 11:11:54;;;;;;;;;;;19.50;62.30;;;;;;5082448;28;19904;-40
2022/09/28 11:14:30;;;;;;;;;;;19.50;62.30;;;;;;5079297;28;19944;-40
2022/09/28 11:17:14;;;;;;;;;;;19.40;62.20;;;;;;5062633;28;19913;-41
2022/09/28 11:19:41;;;;;;;;;;;19.40;62.30;;;;;;5067109;28;19917;-41
2022/09/28 11:22:19;;;;;;;;;;;19.40;62.30;;;;;;5065318;28;20300;-41
2022/09/28 11:24:46;;;;;;;;;;;19.40;62.30;;;;;;5066035;28;19913;-40
2022/09/28 11:27:19;;;;;;;;;;;19.40;62.30;;;;;;5085912;28;19955;-41
2022/09/28 11:29:50;;;;;;;;;;;19.40;62.40;;;;;;5068295;28;20357;-41
2022/09/28 11:32:17;;;;;;;;;;;19.40;62.40;;;;;;5042595;28;19920;-44
2022/09/28 11:34:43;;;;;;;;;;;19.40;62.40;;;;;;5061180;28;19939;-40
2022/09/28 11:37:15;;;;;;;;;;;19.30;62.30;;;;;;5049195;28;19913;-40
2022/09/28 11:39:52;;;;;;;;;;;19.30;62.30;;;;;;5038103;28;20007;-40
2022/09/28 11:42:38;;;;;;;;;;;19.30;62.40;;;;;;5034497;28;19909;-40
2022/09/28 11:45:17;;;;;;;;;;;19.30;62.40;;;;;;5028281;28;20376;-41
2022/09/28 11:47:48;;;;;;;;;;;19.30;62.50;;;;;;5034886;28;19916;-40
2022/09/28 11:50:18;;;;;;;;;;;19.30;62.50;;;;;;5028592;28;19909;-41
2022/09/28 11:52:50;;;;;;;;;;;19.20;62.50;;;;;;5045960;28;19973;-40
2022/09/28 11:55:21;;;;;;;;;;;19.20;62.60;;;;;;5047090;28;19913;-41
2022/09/28 11:57:49;;;;;;;;;;;19.20;62.60;;;;;;5045189;28;19905;-40
2022/09/28 12:00:17;;;;;;;;;;;19.20;62.60;;;;;;5041247;28;20712;-41
2022/09/28 12:02:58;;;;;;;;;;;19.20;62.60;;;;;;5052814;28;19920;-41
2022/09/28 12:05:31;;;;;;;;;;;19.20;62.60;;;;;;5053142;28;19962;-41
2022/09/28 12:08:06;;;;;;;;;;;19.20;62.60;;;;;;5034196;28;20003;-41
2022/09/28 12:10:32;;;;;;;;;;;19.20;62.70;;;;;;5064629;28;19909;-41
2022/09/28 12:13:00;;;;;;;;;;;19.20;62.70;;;;;;5061079;28;19924;-41
2022/09/28 12:15:27;;;;;;;;;;;19.10;62.60;;;;;;5046435;28;20716;-40
2022/09/28 12:17:54;;;;;;;;;;;19.10;62.70;;;;;;5034069;28;19917;-40
2022/09/28 12:20:24;;;;;;;;;;;19.10;62.70;;;;;;5027663;28;19921;-40
2022/09/28 12:22:59;;;;;;;;;;;19.10;62.70;;;;;;5027364;28;19913;-41
2022/09/28 12:25:24;;;;;;;;;;;19.10;62.80;;;;;;5042577;28;19931;-41
2022/09/28 12:27:52;;;;;;;;;;;19.10;63.50;;;;;;5047117;28;19909;-40
2022/09/28 12:30:19;;;;;;;;;;;19.10;62.80;;;;;;5037822;28;19916;-42
2022/09/28 12:32:49;;;;;;;;;;;19.00;62.80;;;;;;5049302;28;20002;-41
2022/09/28 12:35:25;;;;;;;;;;;19.00;62.90;;;;;;5064406;28;19915;-40
2022/09/28 12:37:54;;;;;;;;;;;19.00;62.90;;;;;;5026787;28;19971;-41
2022/09/28 12:40:19;;;;;;;;;;;19.00;62.80;;;;;;5048349;28;19917;-40
2022/09/28 12:43:02;;;;;;;;;;;19.00;62.80;;;;;;5048857;28;19917;-41
2022/09/28 12:45:42;;;;;;;;;;;19.00;62.90;;;;;;5055684;28;19912;-41
2022/09/28 12:48:20;;;;;;;;;;;19.00;62.90;;;;;;5039668;28;20345;-40
2022/09/28 12:51:15;;;;;;;;;;;19.00;62.90;;;;;;5034235;28;19939;-40
2022/09/28 12:53:46;;;;;;;;;;;18.90;62.80;;;;;;5034140;28;19913;-41
2022/09/28 12:56:20;;;;;;;;;;;18.90;62.80;;;;;;5027097;28;19905;-40
2022/09/28 12:59:07;;;;;;;;;;;18.90;62.90;;;;;;5026543;28;19917;-40
2022/09/28 13:01:37;;;;;;;;;;;18.90;62.90;;;;;;5027195;28;20288;-40
2022/09/28 13:04:09;;;;;;;;;;;18.90;62.90;;;;;;5057211;28;19909;-41
2022/09/28 13:06:50;;;;;;;;;;;18.90;63.00;;;;;;5056257;28;20010;-40
2022/09/28 13:09:18;;;;;;;;;;;18.90;63.00;;;;;;5043883;28;20648;-41
2022/09/28 13:11:44;;;;;;;;;;;18.80;63.00;;;;;;5043937;28;19909;-41
2022/09/28 13:14:19;;;;;;;;;;;18.90;63.00;;;;;;5044326;28;19920;-40
2022/09/28 13:16:56;;;;;;;;;;;18.80;63.00;;;;;;5045587;28;19963;-41
2022/09/28 13:19:37;;;;;;;;;;;18.80;63.00;;;;;;5029012;28;19927;-40
2022/09/28 13:22:12;;;;;;;;;;;18.80;63.00;;;;;;5045501;28;19959;-41
2022/09/28 13:24:37;;;;;;;;;;;18.80;63.00;;;;;;5047876;28;19913;-40
2022/09/28 13:27:05;;;;;;;;;;;18.80;63.00;;;;;;5044229;28;19909;-40
2022/09/28 13:29:33;;;;;;;;;;;18.80;63.00;;;;;;5037703;28;20748;-40
2022/09/28 13:31:59;;;;;;;;;;;18.80;63.00;;;;;;5029162;28;19917;-40
2022/09/28 13:34:28;;;;;;;;;;;18.80;63.00;;;;;;5062102;28;19963;-40
2022/09/28 13:37:06;;;;;;;;;;;18.80;63.00;;;;;;5063120;28;19951;-41
2022/09/28 13:39:33;;;;;;;;;;;18.70;63.00;;;;;;5070440;28;19939;-41
2022/09/28 13:41:59;;;;;;;;;;;18.70;63.00;;;;;;5059432;28;19920;-40
2022/09/28 13:44:38;;;;;;;;;;;18.70;63.00;;;;;;5063766;28;19908;-41